createdAt,value
2022-12-15T00:03:37.005Z,22.42
2022-12-15T00:08:59.494Z,21.80
2022-12-15T00:14:22.277Z,14.57
2022-12-15T00:19:43.389Z,20.05
2022-12-15T00:25:04.276Z,16.80
2022-12-15T00:30:28.959Z,21.60
2022-12-15T00:35:49.872Z,21.48
2022-12-15T00:40:58.969Z,21.40
2022-12-15T00:46:22.856Z,22.67
2022-12-15T00:51:44.648Z,23.15
2022-12-15T00:57:05.668Z,15.93
2022-12-15T01:02:28.277Z,19.83
2022-12-15T01:07:49.665Z,18.92
2022-12-15T01:13:11.243Z,20.05
2022-12-15T01:18:33.769Z,21.65
2022-12-15T01:23:38.427Z,21.92
2022-12-15T01:28:42.119Z,25.75
2022-12-15T01:33:47.411Z,21.27
2022-12-15T01:38:54.332Z,18.33
2022-12-15T01:44:20.403Z,27.58
2022-12-15T01:49:29.735Z,28.83
2022-12-15T01:54:38.687Z,18.77
2022-12-15T01:59:50.668Z,22.00
2022-12-15T02:04:57.933Z,20.15
2022-12-15T02:10:03.427Z,20.08
2022-12-15T02:15:18.791Z,14.63
2022-12-15T02:20:45.988Z,19.42
2022-12-15T02:26:10.379Z,17.75
2022-12-15T02:31:36.078Z,22.73
2022-12-15T02:36:44.098Z,31.13
2022-12-15T02:41:49.029Z,18.50
2022-12-15T02:47:22.343Z,17.17
2022-12-15T02:52:42.230Z,22.60
2022-12-15T02:57:54.218Z,19.10
2022-12-15T03:02:59.748Z,27.17
2022-12-15T03:08:03.800Z,26.80
2022-12-15T03:13:07.510Z,24.52
2022-12-15T03:18:12.579Z,22.92
2022-12-15T03:23:16.330Z,18.17
2022-12-15T03:28:20.075Z,19.92
2022-12-15T03:33:25.160Z,20.25
2022-12-15T03:38:28.891Z,20.98
2022-12-15T03:43:32.677Z,24.13
2022-12-15T03:48:38.000Z,21.55
2022-12-15T03:53:41.977Z,23.40
2022-12-15T03:58:45.637Z,21.17
2022-12-15T04:03:53.222Z,20.08
2022-12-15T04:08:59.456Z,22.08
2022-12-15T04:14:03.205Z,25.63
2022-12-15T04:19:25.717Z,21.35
2022-12-15T04:24:46.843Z,21.77
2022-12-15T04:30:07.811Z,17.63
2022-12-15T04:35:30.914Z,19.83
2022-12-15T04:40:51.827Z,24.08
2022-12-15T04:46:12.893Z,21.75
2022-12-15T04:51:35.241Z,25.02
2022-12-15T04:56:56.111Z,20.50
2022-12-15T05:02:17.228Z,22.00
2022-12-15T05:07:39.734Z,22.20
2022-12-15T05:13:01.352Z,26.20
2022-12-15T05:18:22.677Z,22.60
2022-12-15T05:23:45.019Z,22.60
2022-12-15T05:29:06.460Z,26.25
2022-12-15T05:34:10.101Z,17.98
2022-12-15T05:39:15.613Z,18.35
2022-12-15T05:44:19.685Z,18.80
2022-12-15T05:49:24.110Z,24.95
2022-12-15T05:54:29.159Z,20.92
2022-12-15T05:59:32.868Z,21.55
2022-12-15T06:04:36.550Z,25.98
2022-12-15T06:09:41.713Z,24.60
2022-12-15T06:14:45.435Z,23.27
2022-12-15T06:19:49.143Z,25.55
2022-12-15T06:24:54.165Z,32.45
2022-12-15T06:29:57.884Z,27.83
2022-12-15T06:35:02.071Z,24.10
2022-12-15T06:40:08.644Z,24.70
2022-12-15T06:45:12.576Z,35.72
2022-12-15T06:50:16.403Z,26.77
2022-12-15T06:55:21.535Z,23.63
2022-12-15T07:00:25.337Z,24.55
2022-12-15T07:05:29.041Z,28.67
2022-12-15T07:10:34.140Z,30.42
2022-12-15T07:15:38.153Z,34.17
2022-12-15T07:20:42.023Z,25.60
2022-12-15T07:25:47.721Z,28.60
2022-12-15T07:30:51.472Z,27.95
2022-12-15T07:35:55.448Z,31.25
2022-12-15T07:41:03.673Z,38.40
2022-12-15T07:46:09.000Z,27.58
2022-12-15T07:51:19.058Z,24.90
2022-12-15T07:56:25.328Z,36.22
2022-12-15T08:01:29.341Z,30.85
2022-12-15T08:06:33.305Z,34.85
2022-12-15T08:11:38.419Z,32.92
2022-12-15T08:16:42.352Z,30.63
2022-12-15T08:21:47.465Z,38.58
2022-12-15T08:26:53.061Z,28.63
2022-12-15T08:31:56.916Z,30.48
2022-12-15T08:37:00.670Z,31.50
2022-12-15T08:42:05.947Z,34.70
2022-12-15T08:47:09.692Z,27.65
2022-12-15T08:52:13.598Z,33.47
2022-12-15T08:57:18.665Z,40.50
2022-12-15T09:02:22.712Z,28.83
2022-12-15T09:07:26.509Z,30.05
2022-12-15T09:12:31.631Z,30.17
2022-12-15T09:17:35.416Z,28.05
2022-12-15T09:22:47.086Z,26.15
2022-12-15T09:28:06.318Z,27.65
2022-12-15T09:33:13.015Z,28.75
2022-12-15T09:38:16.625Z,33.20
2022-12-15T09:43:46.600Z,30.40
2022-12-15T09:48:50.970Z,35.63
2022-12-15T09:53:56.155Z,32.47
2022-12-15T09:59:11.175Z,34.13
2022-12-15T10:04:22.389Z,32.70
2022-12-15T10:09:28.993Z,33.53
2022-12-15T10:14:40.793Z,32.05
2022-12-15T10:19:50.782Z,39.05
2022-12-15T10:25:11.298Z,34.92
2022-12-15T10:30:17.154Z,39.42
2022-12-15T10:35:24.127Z,35.53
2022-12-15T10:40:50.193Z,31.27
2022-12-15T10:46:05.655Z,33.58
2022-12-15T10:51:18.480Z,36.22
2022-12-15T10:56:32.370Z,32.95
2022-12-15T11:01:38.465Z,33.35
2022-12-15T11:06:44.011Z,30.58
2022-12-15T11:12:11.840Z,36.50
2022-12-15T11:17:19.205Z,32.83
2022-12-15T11:22:31.186Z,31.05
2022-12-15T11:27:38.936Z,31.20
2022-12-15T11:32:46.962Z,36.22
2022-12-15T11:37:57.508Z,31.08
2022-12-15T11:43:21.686Z,33.90
2022-12-15T11:48:36.379Z,30.15
2022-12-15T11:53:57.759Z,34.92
2022-12-15T11:59:32.831Z,35.13
2022-12-15T12:04:50.764Z,29.33
2022-12-15T12:10:06.258Z,32.75
2022-12-15T12:15:25.526Z,35.28
2022-12-15T12:20:43.114Z,32.33
2022-12-15T12:26:02.615Z,31.52
2022-12-15T12:31:12.400Z,36.33
2022-12-15T12:36:17.657Z,32.97
2022-12-15T12:41:28.334Z,32.25
2022-12-15T12:46:35.504Z,33.20
2022-12-15T12:51:42.592Z,28.40
2022-12-15T12:56:50.333Z,30.42
2022-12-15T13:01:56.715Z,38.97
2022-12-15T13:07:07.745Z,35.63
2022-12-15T13:12:50.961Z,24.02
2022-12-15T13:18:02.029Z,28.33
2022-12-15T13:23:48.602Z,31.08
2022-12-15T13:28:57.369Z,26.58
2022-12-15T13:39:57.992Z,27.20
2022-12-15T13:45:34.648Z,29.27
2022-12-15T13:50:51.523Z,28.65
2022-12-15T13:56:05.325Z,31.38
2022-12-15T14:01:23.184Z,32.13
2022-12-15T14:06:35.265Z,27.05
2022-12-15T14:11:58.604Z,32.17
2022-12-15T14:17:07.817Z,31.02
2022-12-15T14:22:28.640Z,30.08
2022-12-15T14:27:35.162Z,32.17
2022-12-15T14:32:39.349Z,29.80
2022-12-15T14:37:43.765Z,30.38
2022-12-15T14:42:50.619Z,28.05
2022-12-15T14:53:21.145Z,31.48
2022-12-15T14:58:33.192Z,30.50
2022-12-15T15:03:39.096Z,39.88
2022-12-15T15:08:46.848Z,27.45
2022-12-15T15:13:56.097Z,29.25
2022-12-15T15:19:04.427Z,32.45
2022-12-15T15:24:24.921Z,29.70
2022-12-15T15:29:39.596Z,32.65
2022-12-15T15:34:43.495Z,31.83
2022-12-15T15:39:48.759Z,34.25
2022-12-15T15:44:53.798Z,30.40
2022-12-15T15:50:00.611Z,24.58
2022-12-15T15:55:04.524Z,30.92
2022-12-15T16:00:17.229Z,30.85
2022-12-15T16:05:22.045Z,34.22
2022-12-15T16:10:25.794Z,35.80
2022-12-15T16:15:32.686Z,34.80
2022-12-15T16:25:50.512Z,35.63
2022-12-15T16:30:56.385Z,35.97
2022-12-15T16:36:00.219Z,34.53
2022-12-15T16:41:07.555Z,33.22
2022-12-15T16:46:15.776Z,35.88
2022-12-15T16:51:28.946Z,35.30
2022-12-15T16:56:32.619Z,39.30
2022-12-15T17:01:40.428Z,35.08
2022-12-15T17:06:44.630Z,39.22
2022-12-15T17:11:48.731Z,36.63
2022-12-15T17:16:56.125Z,38.85
2022-12-15T17:21:59.799Z,35.83
2022-12-15T17:27:03.860Z,36.63
2022-12-15T17:32:12.366Z,36.10
2022-12-15T17:37:16.249Z,37.15
2022-12-15T17:42:21.580Z,34.35
2022-12-15T17:47:28.844Z,39.33
2022-12-15T17:52:34.644Z,42.38
2022-12-15T17:57:38.454Z,44.97
2022-12-15T18:02:43.604Z,37.35
2022-12-15T18:07:50.880Z,43.17
2022-12-15T18:12:54.877Z,43.67
2022-12-15T18:18:01.227Z,35.03
2022-12-15T18:23:13.412Z,46.88
2022-12-15T18:28:22.672Z,32.47
2022-12-15T18:33:30.743Z,39.60
2022-12-15T18:38:34.863Z,33.88
2022-12-15T18:43:38.589Z,33.63
2022-12-15T18:48:44.470Z,36.15
2022-12-15T18:53:49.127Z,32.97
2022-12-15T18:58:52.947Z,44.85
2022-12-15T19:03:58.072Z,36.53
2022-12-15T19:09:02.715Z,43.20
2022-12-15T19:14:35.129Z,38.47
2022-12-15T19:20:12.157Z,34.50
2022-12-15T19:25:25.361Z,35.13
2022-12-15T19:30:38.291Z,43.28
2022-12-15T19:35:51.867Z,40.50
2022-12-15T19:40:56.988Z,37.70
2022-12-15T19:46:00.673Z,36.75
2022-12-15T19:51:06.029Z,36.03
2022-12-15T19:56:15.264Z,37.63
2022-12-15T20:01:21.388Z,34.80
2022-12-15T20:06:28.240Z,32.67
2022-12-15T20:11:34.467Z,34.78
2022-12-15T20:16:38.212Z,38.90
2022-12-15T20:21:43.449Z,48.70
2022-12-15T20:26:47.985Z,45.88
2022-12-15T20:31:52.249Z,42.85
2022-12-15T20:36:57.712Z,38.22
2022-12-15T20:42:01.543Z,47.45
2022-12-15T20:47:05.616Z,43.80
2022-12-15T20:52:19.714Z,40.20
2022-12-15T20:57:23.475Z,46.47
2022-12-15T21:02:30.098Z,41.63
2022-12-15T21:07:35.738Z,41.67
2022-12-15T21:12:39.393Z,39.58
2022-12-15T21:17:43.873Z,40.20
2022-12-15T21:22:48.956Z,44.17
2022-12-15T21:27:54.238Z,41.90
2022-12-15T21:32:58.875Z,42.10
2022-12-15T21:38:04.453Z,40.17
2022-12-15T21:43:08.180Z,41.33
2022-12-15T21:48:31.088Z,32.58
2022-12-15T21:53:36.472Z,37.88
2022-12-15T21:58:40.121Z,44.60
2022-12-15T22:03:49.524Z,37.70
2022-12-15T22:08:55.765Z,39.50
2022-12-15T22:14:02.808Z,35.90
2022-12-15T22:19:12.040Z,36.88
2022-12-15T22:24:17.203Z,36.70
2022-12-15T22:29:23.212Z,35.88
2022-12-15T22:34:28.130Z,39.10
2022-12-15T22:39:33.810Z,38.95
2022-12-15T22:44:38.951Z,34.17
2022-12-15T22:49:42.990Z,40.50
2022-12-15T22:54:48.998Z,40.95
2022-12-15T23:00:00.457Z,36.53
2022-12-15T23:05:04.997Z,34.53
2022-12-15T23:10:29.707Z,40.55
2022-12-15T23:15:51.357Z,36.38
2022-12-15T23:20:55.730Z,37.15
2022-12-15T23:26:00.945Z,39.50
2022-12-15T23:31:05.203Z,41.85
2022-12-15T23:36:10.232Z,42.60
2022-12-15T23:41:18.599Z,41.60
2022-12-15T23:46:22.391Z,45.45
2022-12-15T23:51:26.190Z,40.80
2022-12-15T23:56:31.256Z,38.33
